sensor_id;sensor_type;location;lat;lon;timestamp;pressure;altitude;pressure_sealevel;temperature;humidity
70206;BME280;57593;55.896;37.396;2023-04-01T00:00:04;97960.88;;;4.76;100.00
70206;BME280;57593;55.896;37.396;2023-04-01T00:00:44;97970.69;;;4.79;100.00
70206;BME280;57593;55.896;37.396;2023-04-01T00:01:16;97962.09;;;4.79;100.00
70206;BME280;57593;55.896;37.396;2023-04-01T00:01:47;97963.59;;;4.80;100.00
70206;BME280;57593;55.896;37.396;2023-04-01T00:02:17;97963.84;;;4.87;100.00
70206;BME280;57593;55.896;37.396;2023-04-01T00:02:48;97953.81;;;4.89;100.00
70206;BME280;57593;55.896;37.396;2023-04-01T00:03:20;97962.09;;;4.91;100.00
70206;BME280;57593;55.896;37.396;2023-04-01T00:03:51;97959.59;;;4.95;100.00
70206;BME280;57593;55.896;37.396;2023-04-01T00:04:21;97962.22;;;4.95;100.00
70206;BME280;57593;55.896;37.396;2023-04-01T00:04:52;97966.69;;;4.94;100.00
70206;BME280;57593;55.896;37.396;2023-04-01T00:05:23;97961.47;;;4.94;100.00
70206;BME280;57593;55.896;37.396;2023-04-01T00:05:56;97969.41;;;4.98;100.00
70206;BME280;57593;55.896;37.396;2023-04-01T00:06:28;97962.53;;;4.93;100.00
70206;BME280;57593;55.896;37.396;2023-04-01T00:06:58;97958.94;;;4.98;100.00
70206;BME280;57593;55.896;37.396;2023-04-01T00:07:30;97962.31;;;4.98;100.00
70206;BME280;57593;55.896;37.396;2023-04-01T00:08:01;97958.84;;;4.82;100.00
70206;BME280;57593;55.896;37.396;2023-04-01T00:08:32;97972.38;;;5.09;100.00
70206;BME280;57593;55.896;37.396;2023-04-01T00:09:03;97962.78;;;5.13;100.00
70206;BME280;57593;55.896;37.396;2023-04-01T00:09:33;97971.59;;;5.20;100.00
70206;BME280;57593;55.896;37.396;2023-04-01T00:10:11;97970.50;;;5.09;100.00
70206;BME280;57593;55.896;37.396;2023-04-01T00:10:42;97960.69;;;5.06;100.00
70206;BME280;57593;55.896;37.396;2023-04-01T00:11:13;97970.31;;;5.14;100.00
70206;BME280;57593;55.896;37.396;2023-04-01T00:11:45;97967.13;;;5.21;100.00
70206;BME280;57593;55.896;37.396;2023-04-01T00:12:15;97954.03;;;5.21;100.00
70206;BME280;57593;55.896;37.396;2023-04-01T00:12:46;97959.50;;;5.16;100.00
70206;BME280;57593;55.896;37.396;2023-04-01T00:13:17;97963.97;;;5.15;100.00
70206;BME280;57593;55.896;37.396;2023-04-01T00:13:48;97972.25;;;5.17;100.00
70206;BME280;57593;55.896;37.396;2023-04-01T00:14:19;97961.25;;;5.12;100.00
70206;BME280;57593;55.896;37.396;2023-04-01T00:14:49;97963.31;;;5.18;100.00
70206;BME280;57593;55.896;37.396;2023-04-01T00:15:20;97962.88;;;5.16;100.00
70206;BME280;57593;55.896;37.396;2023-04-01T00:15:51;97959.06;;;5.14;100.00
70206;BME280;57593;55.896;37.396;2023-04-01T00:16:22;97967.13;;;5.09;100.00
70206;BME280;57593;55.896;37.396;2023-04-01T00:16:52;97961.66;;;5.01;100.00
70206;BME280;57593;55.896;37.396;2023-04-01T00:17:23;97960.91;;;5.01;100.00
70206;BME280;57593;55.896;37.396;2023-04-01T00:17:54;97960.16;;;5.00;100.00
70206;BME280;57593;55.896;37.396;2023-04-01T00:18:24;97966.78;;;4.98;100.00
70206;BME280;57593;55.896;37.396;2023-04-01T00:18:55;97967.22;;;5.00;100.00
70206;BME280;57593;55.896;37.396;2023-04-01T00:19:26;97968.66;;;4.97;100.00
70206;BME280;57593;55.896;37.396;2023-04-01T00:19:57;97973.25;;;5.00;100.00
70206;BME280;57593;55.896;37.396;2023-04-01T00:20:28;97963.63;;;4.92;100.00
70206;BME280;57593;55.896;37.396;2023-04-01T00:20:58;97959.03;;;4.89;100.00
70206;BME280;57593;55.896;37.396;2023-04-01T00:21:29;97958.03;;;4.81;100.00
70206;BME280;57593;55.896;37.396;2023-04-01T00:22:00;97960.13;;;4.76;100.00
70206;BME280;57593;55.896;37.396;2023-04-01T00:22:31;97961.66;;;4.89;100.00
70206;BME280;57593;55.896;37.396;2023-04-01T00:23:02;97963.63;;;4.92;100.00
70206;BME280;57593;55.896;37.396;2023-04-01T00:23:33;97960.81;;;4.97;100.00
70206;BME280;57593;55.896;37.396;2023-04-01T00:24:04;97963.63;;;4.92;100.00
70206;BME280;57593;55.896;37.396;2023-04-01T00:24:35;97963.44;;;4.97;100.00
70206;BME280;57593;55.896;37.396;2023-04-01T00:25:06;97959.03;;;5.01;100.00
70206;BME280;57593;55.896;37.396;2023-04-01T00:25:37;97964.19;;;4.98;100.00
70206;BME280;57593;55.896;37.396;2023-04-01T00:26:08;97955.25;;;4.99;100.00
70206;BME280;57593;55.896;37.396;2023-04-01T00:26:38;97955.34;;;5.02;100.00
70206;BME280;57593;55.896;37.396;2023-04-01T00:27:09;97949.38;;;5.02;100.00
70206;BME280;57593;55.896;37.396;2023-04-01T00:27:40;97953.94;;;4.93;100.00
70206;BME280;57593;55.896;37.396;2023-04-01T00:28:11;97952.63;;;4.86;100.00
70206;BME280;57593;55.896;37.396;2023-04-01T00:28:42;97953.28;;;4.83;100.00
70206;BME280;57593;55.896;37.396;2023-04-01T00:29:12;97952.94;;;4.85;100.00
70206;BME280;57593;55.896;37.396;2023-04-01T00:29:45;97951.84;;;4.98;100.00
70206;BME280;57593;55.896;37.396;2023-04-01T00:30:16;97956.09;;;4.78;100.00
70206;BME280;57593;55.896;37.396;2023-04-01T00:30:47;97965.34;;;4.76;100.00
70206;BME280;57593;55.896;37.396;2023-04-01T00:31:18;97953.25;;;4.71;100.00
70206;BME280;57593;55.896;37.396;2023-04-01T00:31:49;97946.38;;;4.66;100.00
70206;BME280;57593;55.896;37.396;2023-04-01T00:32:20;97953.13;;;4.55;100.00
70206;BME280;57593;55.896;37.396;2023-04-01T00:32:53;97960.88;;;4.76;100.00
70206;BME280;57593;55.896;37.396;2023-04-01T00:33:24;97951.28;;;4.68;100.00
70206;BME280;57593;55.896;37.396;2023-04-01T00:33:55;97955.97;;;4.75;100.00
70206;BME280;57593;55.896;37.396;2023-04-01T00:34:26;97948.13;;;4.62;100.00
70206;BME280;57593;55.896;37.396;2023-04-01T00:34:57;97950.97;;;4.70;100.00
70206;BME280;57593;55.896;37.396;2023-04-01T00:35:30;97951.03;;;4.48;100.00
70206;BME280;57593;55.896;37.396;2023-04-01T00:36:13;97952.69;;;4.65;100.00
70206;BME280;57593;55.896;37.396;2023-04-01T00:36:44;97948.56;;;4.64;100.00
70206;BME280;57593;55.896;37.396;2023-04-01T00:37:15;97952.50;;;4.71;100.00
70206;BME280;57593;55.896;37.396;2023-04-01T00:37:45;97957.03;;;4.49;100.00
70206;BME280;57593;55.896;37.396;2023-04-01T00:38:17;97962.38;;;4.53;100.00
70206;BME280;57593;55.896;37.396;2023-04-01T00:38:49;97955.97;;;4.62;100.00
70206;BME280;57593;55.896;37.396;2023-04-01T00:39:20;97953.59;;;4.70;100.00
70206;BME280;57593;55.896;37.396;2023-04-01T00:39:51;97949.88;;;4.71;100.00
70206;BME280;57593;55.896;37.396;2023-04-01T00:40:42;97944.75;;;4.74;100.00
70206;BME280;57593;55.896;37.396;2023-04-01T00:41:14;97940.28;;;4.75;100.00
70206;BME280;57593;55.896;37.396;2023-04-01T00:41:46;97946.41;;;4.79;100.00
70206;BME280;57593;55.896;37.396;2023-04-01T00:42:16;97943.66;;;4.88;100.00
70206;BME280;57593;55.896;37.396;2023-04-01T00:42:48;97948.25;;;4.91;100.00
70206;BME280;57593;55.896;37.396;2023-04-01T00:43:19;97953.72;;;4.98;100.00
70206;BME280;57593;55.896;37.396;2023-04-01T00:43:51;97943.91;;;4.95;100.00
70206;BME280;57593;55.896;37.396;2023-04-01T00:44:25;97942.69;;;4.92;100.00
70206;BME280;57593;55.896;37.396;2023-04-01T00:44:57;97947.41;;;4.99;100.00
70206;BME280;57593;55.896;37.396;2023-04-01T00:45:38;97948.16;;;4.99;100.00
70206;BME280;57593;55.896;37.396;2023-04-01T00:46:09;97943.47;;;5.05;100.00
70206;BME280;57593;55.896;37.396;2023-04-01T00:46:40;97945.31;;;5.04;100.00
70206;BME280;57593;55.896;37.396;2023-04-01T00:47:10;97938.13;;;5.01;100.00
70206;BME280;57593;55.896;37.396;2023-04-01T00:47:41;97935.28;;;4.94;100.00
70206;BME280;57593;55.896;37.396;2023-04-01T00:48:23;97941.19;;;4.91;100.00
70206;BME280;57593;55.896;37.396;2023-04-01T00:48:56;97942.03;;;4.95;100.00
70206;BME280;57593;55.896;37.396;2023-04-01T00:49:30;97934.97;;;4.96;100.00
70206;BME280;57593;55.896;37.396;2023-04-01T00:50:02;97945.22;;;5.01;100.00
70206;BME280;57593;55.896;37.396;2023-04-01T00:50:34;97936.06;;;5.07;100.00
70206;BME280;57593;55.896;37.396;2023-04-01T00:51:27;97944.56;;;5.04;100.00
70206;BME280;57593;55.896;37.396;2023-04-01T00:52:01;97939.09;;;4.97;100.00
70206;BME280;57593;55.896;37.396;2023-04-01T00:52:33;97940.19;;;4.96;100.00
70206;BME280;57593;55.896;37.396;2023-04-01T00:53:05;97937.91;;;4.94;100.00
70206;BME280;57593;55.896;37.396;2023-04-01T00:53:38;97943.66;;;4.88;100.00
70206;BME280;57593;55.896;37.396;2023-04-01T00:54:12;97936.03;;;4.82;100.00
70206;BME280;57593;55.896;37.396;2023-04-01T00:54:46;97937.91;;;4.82;100.00
70206;BME280;57593;55.896;37.396;2023-04-01T00:55:19;97927.75;;;4.80;100.00
70206;BME280;57593;55.896;37.396;2023-04-01T00:55:55;97939.53;;;4.74;100.00
70206;BME280;57593;55.896;37.396;2023-04-01T00:56:30;97944.88;;;4.78;100.00
70206;BME280;57593;55.896;37.396;2023-04-01T00:57:10;97948.69;;;4.68;100.00
70206;BME280;57593;55.896;37.396;2023-04-01T00:57:42;97942.69;;;4.67;100.00
70206;BME280;57593;55.896;37.396;2023-04-01T00:58:18;97943.34;;;4.64;100.00
70206;BME280;57593;55.896;37.396;2023-04-01T00:58:58;97947.47;;;4.65;100.00
70206;BME280;57593;55.896;37.396;2023-04-01T00:59:37;97939.59;;;4.53;100.00
70206;BME280;57593;55.896;37.396;2023-04-01T01:00:11;97939.81;;;4.48;100.00
70206;BME280;57593;55.896;37.396;2023-04-01T01:00:46;97943.84;;;4.58;100.00
70206;BME280;57593;55.896;37.396;2023-04-01T01:01:20;97943.00;;;4.54;100.00
70206;BME280;57593;55.896;37.396;2023-04-01T01:01:52;97938.50;;;4.54;100.00
70206;BME280;57593;55.896;37.396;2023-04-01T01:02:22;97944.28;;;4.47;100.00
70206;BME280;57593;55.896;37.396;2023-04-01T01:02:53;97943.63;;;4.50;100.00
70206;BME280;57593;55.896;37.396;2023-04-01T01:03:24;97936.13;;;4.49;100.00
70206;BME280;57593;55.896;37.396;2023-04-01T01:03:55;97943.63;;;4.50;100.00
70206;BME280;57593;55.896;37.396;2023-04-01T01:04:28;97937.88;;;4.57;100.00
70206;BME280;57593;55.896;37.396;2023-04-01T01:05:00;97939.41;;;4.58;100.00
70206;BME280;57593;55.896;37.396;2023-04-01T01:05:42;97947.25;;;4.58;100.00
70206;BME280;57593;55.896;37.396;2023-04-01T01:08:18;97944.81;;;4.53;100.00
70206;BME280;57593;55.896;37.396;2023-04-01T01:09:15;97943.00;;;4.54;100.00
70206;BME280;57593;55.896;37.396;2023-04-01T01:10:34;97939.59;;;4.53;100.00
70206;BME280;57593;55.896;37.396;2023-04-01T01:11:10;97944.94;;;4.44;100.00
70206;BME280;57593;55.896;37.396;2023-04-01T01:11:51;97941.44;;;4.40;100.00
70206;BME280;57593;55.896;37.396;2023-04-01T01:13:56;97937.59;;;4.38;100.00
70206;BME280;57593;55.896;37.396;2023-04-01T01:15:52;97944.31;;;4.26;100.00
70206;BME280;57593;55.896;37.396;2023-04-01T01:16:27;97953.56;;;4.24;100.00
70206;BME280;57593;55.896;37.396;2023-04-01T01:17:13;97951.19;;;4.31;100.00
70206;BME280;57593;55.896;37.396;2023-04-01T01:18:47;97946.66;;;4.40;100.00
70206;BME280;57593;55.896;37.396;2023-04-01T01:27:03;97949.69;;;4.42;100.00
70206;BME280;57593;55.896;37.396;2023-04-01T01:27:37;97949.94;;;4.49;100.00
70206;BME280;57593;55.896;37.396;2023-04-01T01:31:19;97946.59;;;4.61;100.00
70206;BME280;57593;55.896;37.396;2023-04-01T01:35:58;97954.50;;;4.40;100.00
70206;BME280;57593;55.896;37.396;2023-04-01T01:36:33;97956.34;;;4.40;100.00
70206;BME280;57593;55.896;37.396;2023-04-01T01:37:10;97955.50;;;4.48;100.00
70206;BME280;57593;55.896;37.396;2023-04-01T01:37:44;97954.06;;;4.38;100.00
70206;BME280;57593;55.896;37.396;2023-04-01T01:38:19;97953.53;;;4.45;100.00
70206;BME280;57593;55.896;37.396;2023-04-01T01:38:59;97945.44;;;4.38;100.00
70206;BME280;57593;55.896;37.396;2023-04-01T01:39:31;97949.16;;;4.37;100.00
70206;BME280;57593;55.896;37.396;2023-04-01T01:40:07;97954.28;;;4.45;100.00
70206;BME280;57593;55.896;37.396;2023-04-01T01:40:49;97951.94;;;4.31;100.00
70206;BME280;57593;55.896;37.396;2023-04-01T01:41:25;97955.34;;;4.32;100.00
70206;BME280;57593;55.896;37.396;2023-04-01T01:42:00;97952.41;;;4.34;100.00
70206;BME280;57593;55.896;37.396;2023-04-01T01:42:35;97955.78;;;4.34;100.00
70206;BME280;57593;55.896;37.396;2023-04-01T01:43:10;97947.84;;;4.30;100.00
70206;BME280;57593;55.896;37.396;2023-04-01T01:43:44;97957.06;;;4.28;100.00
70206;BME280;57593;55.896;37.396;2023-04-01T01:44:19;97952.09;;;4.35;100.00
70206;BME280;57593;55.896;37.396;2023-04-01T01:44:52;97957.66;;;4.34;100.00
70206;BME280;57593;55.896;37.396;2023-04-01T01:45:26;97948.50;;;4.40;100.00
70206;BME280;57593;55.896;37.396;2023-04-01T01:46:00;97952.09;;;4.35;100.00
70206;BME280;57593;55.896;37.396;2023-04-01T01:46:32;97953.50;;;4.32;100.00
70206;BME280;57593;55.896;37.396;2023-04-01T01:47:03;97943.47;;;4.35;100.00
70206;BME280;57593;55.896;37.396;2023-04-01T01:47:35;97958.16;;;4.27;100.00
70206;BME280;57593;55.896;37.396;2023-04-01T01:48:08;97958.78;;;4.24;100.00
70206;BME280;57593;55.896;37.396;2023-04-01T01:48:41;97957.00;;;4.37;100.00
70206;BME280;57593;55.896;37.396;2023-04-01T01:49:14;97954.28;;;4.45;100.00
70206;BME280;57593;55.896;37.396;2023-04-01T01:49:45;97952.44;;;4.46;100.00
70206;BME280;57593;55.896;37.396;2023-04-01T01:50:17;97953.16;;;4.67;100.00
70206;BME280;57593;55.896;37.396;2023-04-01T01:50:49;97956.94;;;4.70;100.00
70206;BME280;57593;55.896;37.396;2023-04-01T01:51:21;97952.03;;;4.68;100.00
70206;BME280;57593;55.896;37.396;2023-04-01T01:51:53;97961.19;;;4.62;100.00
70206;BME280;57593;55.896;37.396;2023-04-01T01:52:24;97954.13;;;4.75;100.00
70206;BME280;57593;55.896;37.396;2023-04-01T01:53:08;97956.31;;;4.73;100.00
70206;BME280;57593;55.896;37.396;2023-04-01T01:53:40;97951.06;;;4.73;100.00
70206;BME280;57593;55.896;37.396;2023-04-01T01:54:17;97954.78;;;4.72;100.00
70206;BME280;57593;55.896;37.396;2023-04-01T01:54:53;97952.59;;;4.74;100.00
70206;BME280;57593;55.896;37.396;2023-04-01T01:55:30;97955.53;;;4.73;100.00
70206;BME280;57593;55.896;37.396;2023-04-01T01:56:03;97948.03;;;4.71;100.00
70206;BME280;57593;55.896;37.396;2023-04-01T01:56:38;97949.09;;;4.70;100.00
70206;BME280;57593;55.896;37.396;2023-04-01T01:57:10;97952.59;;;4.74;100.00
70206;BME280;57593;55.896;37.396;2023-04-01T01:57:44;97951.06;;;4.73;100.00
70206;BME280;57593;55.896;37.396;2023-04-01T01:58:25;97947.47;;;4.65;100.00
70206;BME280;57593;55.896;37.396;2023-04-01T01:59:03;97949.31;;;4.65;100.00
70206;BME280;57593;55.896;37.396;2023-04-01T01:59:38;97952.19;;;4.72;100.00
70206;BME280;57593;55.896;37.396;2023-04-01T02:00:12;97954.47;;;4.74;100.00
70206;BME280;57593;55.896;37.396;2023-04-01T02:00:53;97945.84;;;4.73;100.00
70206;BME280;57593;55.896;37.396;2023-04-01T02:01:28;97952.28;;;4.76;100.00
70206;BME280;57593;55.896;37.396;2023-04-01T02:02:06;97945.44;;;4.83;100.00
70206;BME280;57593;55.896;37.396;2023-04-01T02:02:44;97952.50;;;4.83;100.00
70206;BME280;57593;55.896;37.396;2023-04-01T02:03:16;97951.19;;;4.89;100.00
70206;BME280;57593;55.896;37.396;2023-04-01T02:03:49;97948.25;;;4.91;100.00
70206;BME280;57593;55.896;37.396;2023-04-01T02:04:23;97945.09;;;4.85;100.00
70206;BME280;57593;55.896;37.396;2023-04-01T02:04:55;97942.03;;;4.83;100.00
70206;BME280;57593;55.896;37.396;2023-04-01T02:05:27;97941.38;;;4.86;100.00
70206;BME280;57593;55.896;37.396;2023-04-01T02:06:10;97948.56;;;4.77;100.00
70206;BME280;57593;55.896;37.396;2023-04-01T02:06:47;97945.75;;;4.82;100.00
70206;BME280;57593;55.896;37.396;2023-04-01T02:07:24;97948.03;;;4.83;100.00
70206;BME280;57593;55.896;37.396;2023-04-01T02:08:10;97950.63;;;4.71;100.00
70206;BME280;57593;55.896;37.396;2023-04-01T02:08:55;97951.41;;;4.72;100.00
70206;BME280;57593;55.896;37.396;2023-04-01T02:09:28;97946.50;;;4.70;100.00
70206;BME280;57593;55.896;37.396;2023-04-01T02:10:00;97947.34;;;4.62;100.00
70206;BME280;57593;55.896;37.396;2023-04-01T02:10:35;97944.81;;;4.53;100.00
70206;BME280;57593;55.896;37.396;2023-04-01T02:11:10;97949.66;;;4.63;100.00
70206;BME280;57593;55.896;37.396;2023-04-01T02:11:56;97944.31;;;4.60;100.00
70206;BME280;57593;55.896;37.396;2023-04-01T02:12:28;97948.22;;;4.54;100.00
70206;BME280;57593;55.896;37.396;2023-04-01T02:13:02;97945.94;;;4.52;100.00
70206;BME280;57593;55.896;37.396;2023-04-01T02:13:46;97951.03;;;4.48;100.00
70206;BME280;57593;55.896;37.396;2023-04-01T02:14:29;97948.88;;;4.50;100.00
70206;BME280;57593;55.896;37.396;2023-04-01T02:15:06;97952.44;;;4.46;100.00
70206;BME280;57593;55.896;37.396;2023-04-01T02:15:41;97956.38;;;4.52;100.00
70206;BME280;57593;55.896;37.396;2023-04-01T02:16:28;97954.28;;;4.45;100.00
70206;BME280;57593;55.896;37.396;2023-04-01T02:17:07;97951.56;;;4.42;100.00
70206;BME280;57593;55.896;37.396;2023-04-01T02:17:43;97957.75;;;4.37;100.00
70206;BME280;57593;55.896;37.396;2023-04-01T02:18:15;97955.94;;;4.50;100.00
70206;BME280;57593;55.896;37.396;2023-04-01T02:18:48;97958.84;;;4.36;100.00
70206;BME280;57593;55.896;37.396;2023-04-01T02:19:22;97947.50;;;4.32;100.00
70206;BME280;57593;55.896;37.396;2023-04-01T02:20:17;97951.25;;;4.43;100.00
70206;BME280;57593;55.896;37.396;2023-04-01T02:20:49;97952.97;;;4.39;100.00
70206;BME280;57593;55.896;37.396;2023-04-01T02:21:22;97964.22;;;4.52;100.00
70206;BME280;57593;55.896;37.396;2023-04-01T02:21:59;97963.13;;;4.53;100.00
70206;BME280;57593;55.896;37.396;2023-04-01T02:22:34;97949.16;;;4.37;100.00
70206;BME280;57593;55.896;37.396;2023-04-01T02:23:07;97954.53;;;4.53;100.00
70206;BME280;57593;55.896;37.396;2023-04-01T02:23:38;97960.97;;;4.55;100.00
70206;BME280;57593;55.896;37.396;2023-04-01T02:24:12;97952.25;;;4.63;100.00
70206;BME280;57593;55.896;37.396;2023-04-01T02:24:45;97956.94;;;4.70;100.00
70206;BME280;57593;55.896;37.396;2023-04-01T02:25:32;97960.13;;;4.76;100.00
70206;BME280;57593;55.896;37.396;2023-04-01T02:26:06;97958.50;;;4.83;100.00
70206;BME280;57593;55.896;37.396;2023-04-01T02:26:38;97955.44;;;4.94;100.00
70206;BME280;57593;55.896;37.396;2023-04-01T02:27:10;97958.59;;;4.87;100.00
70206;BME280;57593;55.896;37.396;2023-04-01T02:27:43;97952.41;;;4.92;100.00
70206;BME280;57593;55.896;37.396;2023-04-01T02:28:16;97949.56;;;4.97;100.00
70206;BME280;57593;55.896;37.396;2023-04-01T02:28:50;97954.91;;;5.00;100.00
70206;BME280;57593;55.896;37.396;2023-04-01T02:29:25;97958.38;;;5.04;100.00
70206;BME280;57593;55.896;37.396;2023-04-01T02:29:57;97954.91;;;5.00;100.00
70206;BME280;57593;55.896;37.396;2023-04-01T02:30:29;97959.03;;;5.01;100.00
70206;BME280;57593;55.896;37.396;2023-04-01T02:31:02;97952.63;;;4.99;100.00
70206;BME280;57593;55.896;37.396;2023-04-01T02:31:34;97955.44;;;4.94;100.00
70206;BME280;57593;55.896;37.396;2023-04-01T02:32:05;97961.22;;;4.87;100.00
70206;BME280;57593;55.896;37.396;2023-04-01T02:32:37;97964.91;;;4.86;100.00
70206;BME280;57593;55.896;37.396;2023-04-01T02:33:09;97959.47;;;4.79;100.00
70206;BME280;57593;55.896;37.396;2023-04-01T02:33:40;97966.88;;;4.77;100.00
70206;BME280;57593;55.896;37.396;2023-04-01T02:34:12;97959.69;;;4.74;100.00
70206;BME280;57593;55.896;37.396;2023-04-01T02:34:43;97961.00;;;4.67;100.00
70206;BME280;57593;55.896;37.396;2023-04-01T02:35:15;97961.00;;;4.67;100.00
70206;BME280;57593;55.896;37.396;2023-04-01T02:35:46;97964.16;;;4.73;100.00
70206;BME280;57593;55.896;37.396;2023-04-01T02:36:17;97961.00;;;4.67;100.00
70206;BME280;57593;55.896;37.396;2023-04-01T02:36:49;97965.13;;;4.68;100.00
70206;BME280;57593;55.896;37.396;2023-04-01T02:37:20;97971.03;;;4.78;100.00
70206;BME280;57593;55.896;37.396;2023-04-01T02:37:53;97969.47;;;4.77;100.00
70206;BME280;57593;55.896;37.396;2023-04-01T02:38:24;97959.59;;;4.82;100.00
70206;BME280;57593;55.896;37.396;2023-04-01T02:38:56;97967.53;;;4.86;100.00
70206;BME280;57593;55.896;37.396;2023-04-01T02:39:32;97968.72;;;4.76;100.00
70206;BME280;57593;55.896;37.396;2023-04-01T02:40:05;97965.13;;;4.81;100.00
70206;BME280;57593;55.896;37.396;2023-04-01T02:40:47;97968.41;;;4.90;100.00
70206;BME280;57593;55.896;37.396;2023-04-01T02:41:18;97969.75;;;4.96;100.00
70206;BME280;57593;55.896;37.396;2023-04-01T02:41:49;97966.69;;;4.94;100.00
70206;BME280;57593;55.896;37.396;2023-04-01T02:42:19;97969.31;;;4.94;100.00
70206;BME280;57593;55.896;37.396;2023-04-01T02:42:50;97972.13;;;5.01;100.00
70206;BME280;57593;55.896;37.396;2023-04-01T02:43:21;97967.69;;;5.02;100.00
70206;BME280;57593;55.896;37.396;2023-04-01T02:43:52;97972.13;;;5.01;100.00
70206;BME280;57593;55.896;37.396;2023-04-01T02:44:22;97966.88;;;4.89;100.00
70206;BME280;57593;55.896;37.396;2023-04-01T02:44:53;97979.13;;;4.97;100.00
70206;BME280;57593;55.896;37.396;2023-04-01T02:45:24;97969.09;;;4.99;100.00
70206;BME280;57593;55.896;37.396;2023-04-01T02:45:54;97969.84;;;5.00;100.00
70206;BME280;57593;55.896;37.396;2023-04-01T02:46:25;97973.56;;;4.99;100.00
70206;BME280;57593;55.896;37.396;2023-04-01T02:46:56;97970.50;;;4.97;100.00
70206;BME280;57593;55.896;37.396;2023-04-01T02:47:26;97969.63;;;4.93;100.00
70206;BME280;57593;55.896;37.396;2023-04-01T02:47:57;97965.91;;;4.94;100.00
70206;BME280;57593;55.896;37.396;2023-04-01T02:48:29;97970.38;;;4.93;100.00
70206;BME280;57593;55.896;37.396;2023-04-01T02:49:00;97970.06;;;4.95;100.00
70206;BME280;57593;55.896;37.396;2023-04-01T02:49:30;97974.72;;;4.89;100.00
70206;BME280;57593;55.896;37.396;2023-04-01T02:50:01;97976.91;;;4.87;100.00
70206;BME280;57593;55.896;37.396;2023-04-01T02:50:32;97972.25;;;4.93;100.00
70206;BME280;57593;55.896;37.396;2023-04-01T02:51:03;97973.09;;;4.97;100.00
70206;BME280;57593;55.896;37.396;2023-04-01T02:51:34;97973.56;;;4.99;100.00
70206;BME280;57593;55.896;37.396;2023-04-01T02:52:05;97967.53;;;4.98;100.00
70206;BME280;57593;55.896;37.396;2023-04-01T02:52:35;97963.44;;;4.97;100.00
70206;BME280;57593;55.896;37.396;2023-04-01T02:53:06;97980.75;;;5.02;100.00
70206;BME280;57593;55.896;37.396;2023-04-01T02:53:37;97983.06;;;5.03;100.00
70206;BME280;57593;55.896;37.396;2023-04-01T02:54:07;97982.72;;;5.05;100.00
70206;BME280;57593;55.896;37.396;2023-04-01T02:54:38;97979.00;;;5.06;100.00
70206;BME280;57593;55.896;37.396;2023-04-01T02:55:09;97971.72;;;5.12;100.00
70206;BME280;57593;55.896;37.396;2023-04-01T02:55:40;97975.53;;;5.14;100.00
70206;BME280;57593;55.896;37.396;2023-04-01T02:56:11;97979.78;;;5.19;100.00
70206;BME280;57593;55.896;37.396;2023-04-01T02:56:41;97975.41;;;5.23;100.00
70206;BME280;57593;55.896;37.396;2023-04-01T02:57:12;97977.81;;;5.16;100.00
70206;BME280;57593;55.896;37.396;2023-04-01T02:57:43;97974.97;;;5.21;100.00
70206;BME280;57593;55.896;37.396;2023-04-01T02:58:14;97981.84;;;5.26;100.00
70206;BME280;57593;55.896;37.396;2023-04-01T02:58:45;97980.41;;;5.28;100.00
70206;BME280;57593;55.896;37.396;2023-04-01T02:59:15;97978.03;;;5.23;100.00
70206;BME280;57593;55.896;37.396;2023-04-01T02:59:46;97978.16;;;5.27;100.00
70206;BME280;57593;55.896;37.396;2023-04-01T03:00:17;97971.47;;;5.29;100.00
70206;BME280;57593;55.896;37.396;2023-04-01T03:00:48;97981.53;;;5.27;100.00
70206;BME280;57593;55.896;37.396;2023-04-01T03:01:18;97975.88;;;5.25;100.00
70206;BME280;57593;55.896;37.396;2023-04-01T03:01:49;97978.91;;;5.27;100.00
70206;BME280;57593;55.896;37.396;2023-04-01T03:02:20;97975.31;;;5.19;100.00
70206;BME280;57593;55.896;37.396;2023-04-01T03:02:50;97978.56;;;5.16;100.00
70206;BME280;57593;55.896;37.396;2023-04-01T03:03:21;97977.59;;;5.09;100.00
70206;BME280;57593;55.896;37.396;2023-04-01T03:03:52;97981.75;;;4.97;100.00
70206;BME280;57593;55.896;37.396;2023-04-01T03:04:22;97980.84;;;4.93;100.00
70206;BME280;57593;55.896;37.396;2023-04-01T03:04:53;97974.63;;;4.85;100.00
70206;BME280;57593;55.896;37.396;2023-04-01T03:05:24;97982.16;;;4.87;100.00
70206;BME280;57593;55.896;37.396;2023-04-01T03:05:55;97977.66;;;4.75;100.00
70206;BME280;57593;55.896;37.396;2023-04-01T03:06:26;97981.38;;;4.74;100.00
70206;BME280;57593;55.896;37.396;2023-04-01T03:06:57;97977.69;;;4.88;100.00
70206;BME280;57593;55.896;37.396;2023-04-01T03:07:28;97976.28;;;4.90;100.00
70206;BME280;57593;55.896;37.396;2023-04-01T03:07:58;97984.44;;;4.89;100.00
70206;BME280;57593;55.896;37.396;2023-04-01T03:08:29;97980.75;;;4.90;100.00
70206;BME280;57593;55.896;37.396;2023-04-01T03:09:00;97979.97;;;4.89;100.00
70206;BME280;57593;55.896;37.396;2023-04-01T03:09:30;97972.66;;;4.70;100.00
70206;BME280;57593;55.896;37.396;2023-04-01T03:10:01;97981.28;;;4.71;100.00
70206;BME280;57593;55.896;37.396;2023-04-01T03:10:32;97977.66;;;4.75;100.00
70206;BME280;57593;55.896;37.396;2023-04-01T03:11:03;97974.28;;;4.75;100.00
70206;BME280;57593;55.896;37.396;2023-04-01T03:11:35;97972.88;;;4.77;100.00
70206;BME280;57593;55.896;37.396;2023-04-01T03:12:06;97985.50;;;4.75;100.00
70206;BME280;57593;55.896;37.396;2023-04-01T03:12:45;97977.34;;;4.77;100.00
70206;BME280;57593;55.896;37.396;2023-04-01T03:13:16;97981.47;;;4.78;100.00
70206;BME280;57593;55.896;37.396;2023-04-01T03:13:47;97976.22;;;4.65;100.00
70206;BME280;57593;55.896;37.396;2023-04-01T03:14:19;97978.97;;;4.69;100.00
70206;BME280;57593;55.896;37.396;2023-04-01T03:14:50;97981.28;;;4.71;100.00
70206;BME280;57593;55.896;37.396;2023-04-01T03:15:21;97985.41;;;4.72;100.00